Ottawa, Canada
Current Conditions -  °F | °C
As of 2:00 AM on Monday 24 Nov 2014 (Local Time) from CYOW Reporting Station
Overcast Overcast  
Wind Chill: 37°   Ceiling: 15000
Heat Index: 43°   Visibility: 15mi
Dew Point: 39°   Wind: 10mph
Humidity: 87%   Direction: 90°E
Pressure: 29.7"   Gusts: NA
Location:  45.42°N, 75.69°W
Report Text: CYOW 240700Z 09009KT 15SM SCT110 OVC150 06/04 A2970 RMK AC3AS5 SLP059
Loading
Personal Weather Stations






























Interactive Weather Map New forecast layout! Learn more

10-Day Weather Forecast

Advertisements
Track Severe Weather on mobile